createdAt,value
2022-11-28T00:01:36.156Z,8.97
2022-11-28T00:04:05.966Z,8.89
2022-11-28T00:06:38.339Z,8.83
2022-11-28T00:09:06.958Z,8.78
2022-11-28T00:11:34.888Z,8.77
2022-11-28T00:14:02.539Z,8.78
2022-11-28T00:16:30.287Z,8.90
2022-11-28T00:19:00.894Z,8.88
2022-11-28T00:21:31.135Z,8.80
2022-11-28T00:24:00.297Z,8.79
2022-11-28T00:26:37.807Z,8.81
2022-11-28T00:29:09.090Z,8.77
2022-11-28T00:31:42.782Z,8.73
2022-11-28T00:34:13.479Z,8.78
2022-11-28T00:36:43.528Z,8.85
2022-11-28T00:39:12.000Z,8.96
2022-11-28T00:41:40.208Z,9.05
2022-11-28T00:44:08.225Z,9.04
2022-11-28T00:46:36.198Z,9.04
2022-11-28T00:49:04.156Z,9.04
2022-11-28T00:51:34.300Z,9.03
2022-11-28T00:54:04.790Z,9.02
2022-11-28T00:56:38.961Z,9.02
2022-11-28T00:59:07.364Z,9.00
2022-11-28T01:01:41.977Z,9.01
2022-11-28T01:04:14.052Z,9.04
2022-11-28T01:06:48.642Z,9.10
2022-11-28T01:09:21.174Z,9.21
2022-11-28T01:11:52.097Z,9.23
2022-11-28T01:14:23.984Z,9.22
2022-11-28T01:16:52.848Z,9.21
2022-11-28T01:19:21.222Z,9.21
2022-11-28T01:21:49.059Z,9.20
2022-11-28T01:24:17.875Z,9.17
2022-11-28T01:26:45.649Z,9.15
2022-11-28T01:29:13.529Z,9.15
2022-11-28T01:31:41.416Z,9.09
2022-11-28T01:34:09.473Z,9.02
2022-11-28T01:36:37.200Z,9.02
2022-11-28T01:39:06.036Z,9.01
2022-11-28T01:41:34.185Z,9.06
2022-11-28T01:44:14.025Z,9.09
2022-11-28T01:46:42.229Z,9.09
2022-11-28T01:49:21.380Z,9.06
2022-11-28T01:51:58.329Z,9.05
2022-11-28T01:54:29.111Z,9.05
2022-11-28T01:57:15.825Z,9.13
2022-11-28T01:59:56.105Z,9.11
2022-11-28T02:02:33.634Z,9.04
2022-11-28T02:05:02.280Z,8.99
2022-11-28T02:07:30.199Z,8.91
2022-11-28T02:09:58.053Z,8.84
2022-11-28T02:12:59.277Z,8.79
2022-11-28T02:16:00.829Z,8.78
2022-11-28T02:18:54.161Z,8.75
2022-11-28T02:21:47.080Z,8.69
2022-11-28T02:24:49.842Z,8.64
2022-11-28T02:27:32.110Z,8.57
2022-11-28T02:30:12.327Z,8.55
2022-11-28T02:32:59.959Z,8.48
2022-11-28T02:35:51.661Z,8.47
2022-11-28T02:38:38.974Z,8.43
2022-11-28T02:41:12.594Z,8.42
2022-11-28T02:44:09.940Z,8.36
2022-11-28T02:46:56.060Z,8.31
2022-11-28T02:49:37.010Z,8.23
2022-11-28T02:52:17.857Z,8.16
2022-11-28T02:54:47.429Z,8.10
2022-11-28T02:57:15.141Z,8.10
2022-11-28T02:59:42.727Z,8.09
2022-11-28T03:02:31.338Z,8.06
2022-11-28T03:05:04.733Z,8.01
2022-11-28T03:07:56.367Z,8.02
2022-11-28T03:10:45.162Z,7.98
2022-11-28T03:13:26.807Z,7.91
2022-11-28T03:16:16.307Z,7.73
2022-11-28T03:18:55.990Z,7.61
2022-11-28T03:21:47.849Z,7.53
2022-11-28T03:24:27.774Z,7.43
2022-11-28T03:27:16.346Z,7.42
2022-11-28T03:29:50.681Z,7.43
2022-11-28T03:32:28.449Z,7.45
2022-11-28T03:35:06.225Z,7.45
2022-11-28T03:37:40.804Z,7.38
2022-11-28T03:40:15.636Z,7.35
2022-11-28T03:42:49.848Z,7.30
2022-11-28T03:45:26.776Z,7.20
2022-11-28T03:48:02.486Z,7.18
2022-11-28T03:50:47.351Z,7.14
2022-11-28T03:53:24.271Z,7.03
2022-11-28T03:56:01.919Z,6.97
2022-11-28T03:59:08.068Z,6.96
2022-11-28T04:01:59.952Z,6.91
2022-11-28T04:04:53.966Z,6.84
2022-11-28T04:07:34.369Z,6.79
2022-11-28T04:10:41.989Z,6.67
2022-11-28T04:13:18.219Z,6.68
2022-11-28T04:15:55.097Z,6.73
2022-11-28T04:18:50.701Z,6.72
2022-11-28T04:21:29.956Z,6.73
2022-11-28T04:24:25.540Z,6.70
2022-11-28T04:27:01.881Z,6.65
2022-11-28T04:29:37.570Z,6.68
2022-11-28T04:32:08.030Z,6.69
2022-11-28T04:34:38.507Z,6.70
2022-11-28T04:37:09.862Z,6.67
2022-11-28T04:39:42.900Z,6.66
2022-11-28T04:42:23.492Z,6.64
2022-11-28T04:45:15.387Z,6.65
2022-11-28T04:47:44.927Z,6.73
2022-11-28T04:50:13.585Z,6.71
2022-11-28T04:53:00.146Z,6.66
2022-11-28T04:55:43.892Z,6.69
2022-11-28T04:58:18.296Z,6.72
2022-11-28T05:00:50.121Z,6.74
2022-11-28T05:03:21.519Z,6.69
2022-11-28T05:05:51.693Z,6.81
2022-11-28T05:08:20.208Z,6.88
2022-11-28T05:10:48.556Z,6.85
2022-11-28T05:13:16.484Z,6.87
2022-11-28T05:15:44.184Z,7.01
2022-11-28T05:18:11.950Z,7.00
2022-11-28T05:20:41.940Z,7.06
2022-11-28T05:23:09.615Z,7.15
2022-11-28T05:25:39.893Z,7.09
2022-11-28T05:28:08.980Z,7.09
2022-11-28T05:30:36.676Z,7.10
2022-11-28T05:33:04.429Z,7.05
2022-11-28T05:35:32.074Z,7.06
2022-11-28T05:37:59.669Z,7.07
2022-11-28T05:40:27.417Z,6.98
2022-11-28T05:42:55.188Z,6.89
2022-11-28T05:45:22.884Z,6.82
2022-11-28T05:47:50.588Z,6.78
2022-11-28T05:50:18.305Z,6.74
2022-11-28T05:52:46.020Z,6.72
2022-11-28T05:55:13.852Z,6.75
2022-11-28T05:57:41.479Z,6.78
2022-11-28T06:00:09.866Z,6.74
2022-11-28T06:02:41.417Z,6.69
2022-11-28T06:05:34.604Z,6.66
2022-11-28T06:07:57.106Z,6.63
2022-11-28T06:10:24.977Z,6.65
2022-11-28T06:12:52.640Z,6.70
2022-11-28T06:15:20.410Z,6.78
2022-11-28T06:17:48.104Z,6.83
2022-11-28T06:20:16.086Z,6.82
2022-11-28T06:22:47.044Z,6.76
2022-11-28T06:25:14.837Z,6.65
2022-11-28T06:27:42.849Z,6.54
2022-11-28T06:30:10.772Z,6.50
2022-11-28T06:32:38.705Z,6.45
2022-11-28T06:35:07.138Z,6.36
2022-11-28T06:37:34.760Z,6.34
2022-11-28T06:40:02.709Z,6.39
2022-11-28T06:42:30.399Z,6.42
2022-11-28T06:44:58.059Z,6.45
2022-11-28T06:47:25.756Z,6.45
2022-11-28T06:49:53.408Z,6.42
2022-11-28T06:52:21.162Z,6.39
2022-11-28T06:54:48.864Z,6.36
2022-11-28T06:57:16.557Z,6.41
2022-11-28T06:59:44.454Z,6.44
2022-11-28T07:02:12.459Z,6.55
2022-11-28T07:04:40.217Z,6.54
2022-11-28T07:07:08.047Z,6.48
2022-11-28T07:09:37.072Z,6.48
2022-11-28T07:12:05.015Z,6.47
2022-11-28T07:14:33.819Z,6.47
2022-11-28T07:17:01.625Z,6.40
2022-11-28T07:19:29.379Z,6.31
2022-11-28T07:21:57.165Z,6.22
2022-11-28T07:24:24.965Z,6.14
2022-11-28T07:26:52.970Z,6.04
2022-11-28T07:29:20.707Z,5.97
2022-11-28T07:31:48.819Z,5.97
2022-11-28T07:34:16.745Z,5.88
2022-11-28T07:36:44.406Z,5.83
2022-11-28T07:39:16.249Z,5.77
2022-11-28T07:41:43.913Z,5.75
2022-11-28T07:44:11.816Z,5.69
2022-11-28T07:46:39.740Z,5.74
2022-11-28T07:49:07.464Z,5.72
2022-11-28T07:51:35.546Z,5.75
2022-11-28T07:54:05.697Z,5.74
2022-11-28T07:57:11.646Z,5.74
2022-11-28T07:59:25.708Z,5.61
2022-11-28T08:01:53.939Z,5.58
2022-11-28T08:04:22.811Z,5.58
2022-11-28T08:06:50.566Z,5.57
2022-11-28T08:09:19.319Z,5.60
2022-11-28T08:11:47.054Z,5.69
2022-11-28T08:14:14.762Z,5.76
2022-11-28T08:16:45.171Z,5.82
2022-11-28T08:19:13.694Z,5.93
2022-11-28T08:21:41.893Z,5.96
2022-11-28T08:24:11.620Z,5.91
2022-11-28T08:26:40.247Z,5.86
2022-11-28T08:29:08.065Z,5.87
2022-11-28T08:31:38.748Z,5.82
2022-11-28T08:34:09.707Z,5.84
2022-11-28T08:36:37.542Z,5.88
2022-11-28T08:39:23.551Z,5.87
2022-11-28T08:41:57.140Z,5.92
2022-11-28T08:44:30.246Z,6.04
2022-11-28T08:46:58.363Z,6.09
2022-11-28T08:49:26.050Z,6.20
2022-11-28T08:51:53.919Z,6.28
2022-11-28T08:54:21.634Z,6.29
2022-11-28T08:56:50.118Z,6.44
2022-11-28T08:59:17.865Z,6.67
2022-11-28T09:01:45.643Z,6.76
2022-11-28T09:04:13.375Z,6.74
2022-11-28T09:06:41.416Z,6.75
2022-11-28T09:09:09.912Z,6.82
2022-11-28T09:11:38.187Z,6.90
2022-11-28T09:14:06.540Z,6.94
2022-11-28T09:16:34.825Z,7.00
2022-11-28T09:19:02.718Z,7.08
2022-11-28T09:21:30.412Z,7.23
2022-11-28T09:23:59.192Z,7.43
2022-11-28T09:26:27.023Z,7.52
2022-11-28T09:28:54.774Z,7.54
2022-11-28T09:31:23.127Z,7.56
2022-11-28T09:33:51.217Z,7.53
2022-11-28T09:36:22.371Z,7.53
2022-11-28T09:38:50.929Z,7.55
2022-11-28T09:41:54.641Z,7.69
2022-11-28T09:44:47.869Z,7.85
2022-11-28T09:47:25.732Z,7.98
2022-11-28T09:50:02.992Z,8.06
2022-11-28T09:52:43.990Z,8.17
2022-11-28T09:55:20.882Z,8.33
2022-11-28T09:57:52.156Z,8.34
2022-11-28T10:00:34.945Z,8.33
2022-11-28T10:03:25.866Z,8.43
2022-11-28T10:05:59.815Z,8.54
2022-11-28T10:09:16.542Z,8.57
2022-11-28T10:12:14.069Z,8.63
2022-11-28T10:15:18.838Z,8.69
2022-11-28T10:18:27.888Z,8.64
2022-11-28T10:21:03.977Z,8.65
2022-11-28T10:23:42.238Z,8.68
2022-11-28T10:26:51.376Z,8.77
2022-11-28T10:29:45.677Z,8.77
2022-11-28T10:32:21.112Z,8.76
2022-11-28T10:35:04.464Z,8.80
2022-11-28T10:37:38.379Z,8.82
2022-11-28T10:40:36.488Z,8.88
2022-11-28T10:43:24.502Z,8.93
2022-11-28T10:46:21.640Z,9.00
2022-11-28T10:49:05.679Z,9.08
2022-11-28T10:51:45.243Z,9.11
2022-11-28T10:54:45.531Z,9.12
2022-11-28T10:57:23.964Z,9.09
2022-11-28T11:00:13.112Z,9.13
2022-11-28T11:02:54.707Z,9.17
2022-11-28T11:05:29.782Z,9.23
2022-11-28T11:08:05.080Z,9.28
2022-11-28T11:10:41.323Z,9.29
2022-11-28T11:13:21.098Z,9.30
2022-11-28T11:15:57.730Z,9.34
2022-11-28T11:18:29.700Z,9.36
2022-11-28T11:21:19.113Z,9.40
2022-11-28T11:23:49.340Z,9.48
2022-11-28T11:26:27.278Z,9.54
2022-11-28T11:28:56.510Z,9.51
2022-11-28T11:31:29.721Z,9.56
2022-11-28T11:34:14.084Z,9.60
2022-11-28T11:36:41.993Z,9.64
2022-11-28T11:39:12.694Z,9.68
2022-11-28T11:42:06.828Z,9.74
2022-11-28T11:44:35.839Z,9.81
2022-11-28T11:47:10.588Z,9.81
2022-11-28T11:49:51.055Z,9.81
2022-11-28T11:52:26.346Z,9.84
2022-11-28T11:54:57.176Z,9.87
2022-11-28T11:57:47.345Z,9.96
2022-11-28T12:00:23.117Z,10.05
2022-11-28T12:03:01.085Z,10.08
2022-11-28T12:06:14.851Z,10.16
2022-11-28T12:09:04.158Z,10.24
2022-11-28T12:11:42.496Z,10.27
2022-11-28T12:14:35.232Z,10.39
2022-11-28T12:17:47.952Z,10.48
2022-11-28T12:21:05.475Z,10.59
2022-11-28T12:23:51.074Z,10.72
2022-11-28T12:26:38.192Z,10.75
2022-11-28T12:29:24.851Z,10.77
2022-11-28T12:32:20.437Z,10.71
2022-11-28T12:35:38.041Z,10.66
2022-11-28T12:38:39.395Z,10.67
2022-11-28T12:41:32.805Z,10.68
2022-11-28T12:44:55.043Z,10.67
2022-11-28T12:48:06.970Z,10.57
2022-11-28T12:50:42.723Z,10.53
2022-11-28T12:53:48.469Z,10.53
2022-11-28T12:56:48.617Z,10.54
2022-11-28T12:59:37.303Z,10.57
2022-11-28T13:02:59.433Z,10.64
2022-11-28T13:05:58.337Z,10.77
2022-11-28T13:09:11.090Z,10.75
2022-11-28T13:12:06.373Z,10.77
2022-11-28T13:14:52.632Z,10.89
2022-11-28T13:17:43.404Z,11.06
2022-11-28T13:20:42.031Z,11.09
2022-11-28T13:23:39.476Z,11.11
2022-11-28T13:26:46.289Z,11.25
2022-11-28T13:29:33.772Z,11.27
2022-11-28T13:32:23.365Z,11.33
2022-11-28T13:34:52.047Z,11.38
2022-11-28T13:40:41.242Z,11.55
2022-11-28T13:43:26.355Z,11.58
2022-11-28T13:45:55.508Z,11.56
2022-11-28T13:49:13.714Z,11.54
2022-11-28T13:51:32.942Z,11.52
2022-11-28T13:54:19.686Z,11.58
2022-11-28T13:57:22.203Z,11.72
2022-11-28T14:00:00.186Z,11.74
2022-11-28T14:02:59.987Z,11.81
2022-11-28T14:05:37.036Z,11.95
2022-11-28T14:08:07.237Z,11.95
2022-11-28T14:11:02.969Z,11.79
2022-11-28T14:13:52.801Z,11.78
2022-11-28T14:17:10.161Z,11.74
2022-11-28T14:19:59.050Z,11.66
2022-11-28T14:23:15.640Z,11.62
2022-11-28T14:25:48.504Z,11.58
2022-11-28T14:28:36.778Z,11.50
2022-11-28T14:31:11.007Z,11.45
2022-11-28T14:33:43.264Z,11.45
2022-11-28T14:36:33.784Z,11.47
2022-11-28T14:39:07.314Z,11.45
2022-11-28T14:42:06.908Z,11.48
2022-11-28T14:44:51.524Z,11.58
2022-11-28T14:47:21.968Z,11.59
2022-11-28T14:50:10.462Z,11.57
2022-11-28T14:52:43.292Z,11.66
2022-11-28T14:55:13.062Z,11.66
2022-11-28T14:57:54.433Z,11.75
2022-11-28T15:00:31.954Z,11.74
2022-11-28T15:03:50.591Z,11.80
2022-11-28T15:06:32.870Z,11.93
2022-11-28T15:09:33.401Z,11.91
2022-11-28T15:12:22.768Z,11.89
2022-11-28T15:14:57.766Z,11.87
2022-11-28T15:17:33.363Z,11.80
2022-11-28T15:20:19.210Z,11.85
2022-11-28T15:22:46.974Z,11.92
2022-11-28T15:25:21.437Z,11.99
2022-11-28T15:27:49.724Z,12.01
2022-11-28T15:30:26.428Z,11.96
2022-11-28T15:33:00.132Z,11.86
2022-11-28T15:35:28.804Z,11.87
2022-11-28T15:37:58.417Z,11.83
2022-11-28T15:40:32.458Z,11.60
2022-11-28T15:43:06.754Z,11.38
2022-11-28T15:45:42.184Z,11.31
2022-11-28T15:48:39.731Z,11.30
2022-11-28T15:51:20.204Z,11.19
2022-11-28T15:53:47.928Z,11.21
2022-11-28T15:56:16.256Z,11.32
2022-11-28T15:58:47.641Z,11.33
2022-11-28T16:01:27.869Z,11.18
2022-11-28T16:04:13.364Z,11.07
2022-11-28T16:06:50.247Z,11.11
2022-11-28T16:09:17.921Z,11.04
2022-11-28T16:11:51.200Z,10.93
2022-11-28T16:14:28.995Z,10.80
2022-11-28T16:17:03.793Z,10.67
2022-11-28T16:19:37.993Z,10.62
2022-11-28T16:22:17.037Z,10.52
2022-11-28T16:24:51.947Z,10.49
2022-11-28T16:27:31.813Z,10.46
2022-11-28T16:30:00.784Z,10.35
2022-11-28T16:32:40.189Z,10.38
2022-11-28T16:35:12.516Z,10.34
2022-11-28T16:37:40.271Z,10.26
2022-11-28T16:40:23.816Z,10.35
2022-11-28T16:43:02.951Z,10.40
2022-11-28T16:45:34.434Z,10.29
2022-11-28T16:48:09.401Z,10.24
2022-11-28T16:50:37.659Z,10.16
2022-11-28T16:53:05.761Z,10.04
2022-11-28T16:55:33.725Z,10.03
2022-11-28T16:58:15.044Z,10.12
2022-11-28T17:01:07.266Z,10.14
2022-11-28T17:03:49.322Z,10.20
2022-11-28T17:06:27.220Z,10.23
2022-11-28T17:08:56.507Z,10.33
2022-11-28T17:11:31.782Z,10.26
2022-11-28T17:14:02.490Z,10.20
2022-11-28T17:16:36.875Z,10.17
2022-11-28T17:19:04.989Z,10.02
2022-11-28T17:21:38.029Z,10.06
2022-11-28T17:24:13.966Z,10.09
2022-11-28T17:26:41.704Z,10.06
2022-11-28T17:29:15.142Z,10.03
2022-11-28T17:31:46.759Z,9.94
2022-11-28T17:34:22.033Z,9.85
2022-11-28T17:36:51.094Z,9.87
2022-11-28T17:39:20.547Z,9.82
2022-11-28T17:41:49.504Z,9.69
2022-11-28T17:44:23.942Z,9.59
2022-11-28T17:46:54.733Z,9.49
2022-11-28T17:49:23.350Z,9.40
2022-11-28T17:51:53.019Z,9.37
2022-11-28T17:54:23.740Z,9.31
2022-11-28T17:56:54.111Z,9.16
2022-11-28T17:59:24.584Z,9.07
2022-11-28T18:01:52.686Z,8.99
2022-11-28T18:04:24.443Z,8.84
2022-11-28T18:06:52.703Z,8.74
2022-11-28T18:09:20.480Z,8.72
2022-11-28T18:11:48.263Z,8.65
2022-11-28T18:14:19.445Z,8.56
2022-11-28T18:16:48.031Z,8.53
2022-11-28T18:19:15.895Z,8.44
2022-11-28T18:21:43.766Z,8.31
2022-11-28T18:24:11.420Z,8.25
2022-11-28T18:26:39.646Z,8.31
2022-11-28T18:29:08.919Z,8.31
2022-11-28T18:31:38.052Z,8.28
2022-11-28T18:34:07.980Z,8.17
2022-11-28T18:36:38.303Z,8.11
2022-11-28T18:39:14.391Z,8.06
2022-11-28T18:41:42.545Z,8.05
2022-11-28T18:44:11.446Z,8.01
2022-11-28T18:46:40.059Z,7.93
2022-11-28T18:49:12.186Z,7.92
2022-11-28T18:51:39.953Z,7.90
2022-11-28T18:54:09.955Z,7.87
2022-11-28T18:56:37.740Z,7.80
2022-11-28T18:59:05.921Z,7.69
2022-11-28T19:01:35.433Z,7.55
2022-11-28T19:04:12.132Z,7.42
2022-11-28T19:06:40.662Z,7.38
2022-11-28T19:09:13.520Z,7.30
2022-11-28T19:11:42.580Z,7.23
2022-11-28T19:14:18.429Z,7.22
2022-11-28T19:16:46.843Z,7.24
2022-11-28T19:19:17.349Z,7.23
2022-11-28T19:21:45.231Z,7.23
2022-11-28T19:24:14.540Z,7.20
2022-11-28T19:26:42.857Z,7.18
2022-11-28T19:29:10.826Z,7.14
2022-11-28T19:31:41.030Z,7.07
2022-11-28T19:34:18.300Z,6.99
2022-11-28T19:36:50.909Z,6.91
2022-11-28T19:39:28.109Z,6.86
2022-11-28T19:41:56.883Z,6.82
2022-11-28T19:44:26.550Z,6.82
2022-11-28T19:46:56.248Z,6.78
2022-11-28T19:49:24.917Z,6.78
2022-11-28T19:51:54.391Z,6.78
2022-11-28T19:54:22.292Z,6.82
2022-11-28T19:56:51.154Z,6.76
2022-11-28T19:59:19.244Z,6.73
2022-11-28T20:01:49.763Z,6.70
2022-11-28T20:04:17.832Z,6.79
2022-11-28T20:06:45.535Z,6.77
2022-11-28T20:09:16.084Z,6.72
2022-11-28T20:11:45.555Z,6.65
2022-11-28T20:14:20.155Z,6.63
2022-11-28T20:16:48.440Z,6.61
2022-11-28T20:19:17.763Z,6.66
2022-11-28T20:21:46.581Z,6.68
2022-11-28T20:24:16.056Z,6.70
2022-11-28T20:26:45.545Z,6.66
2022-11-28T20:29:16.911Z,6.70
2022-11-28T20:31:47.647Z,6.73
2022-11-28T20:34:18.842Z,6.67
2022-11-28T20:36:52.782Z,6.57
2022-11-28T20:39:20.751Z,6.52
2022-11-28T20:41:48.595Z,6.54
2022-11-28T20:44:18.268Z,6.59
2022-11-28T20:46:47.080Z,6.59
2022-11-28T20:49:15.331Z,6.57
2022-11-28T20:51:43.129Z,6.56
2022-11-28T20:54:13.634Z,6.49
2022-11-28T20:57:12.858Z,6.48
2022-11-28T20:59:31.164Z,6.49
2022-11-28T21:01:59.016Z,6.50
2022-11-28T21:04:26.731Z,6.51
2022-11-28T21:06:54.609Z,6.52
2022-11-28T21:09:22.788Z,6.55
2022-11-28T21:11:57.371Z,6.59
2022-11-28T21:14:28.871Z,6.60
2022-11-28T21:16:58.571Z,6.58
2022-11-28T21:19:27.296Z,6.55
2022-11-28T21:21:55.040Z,6.53
2022-11-28T21:24:22.800Z,6.57
2022-11-28T21:26:53.974Z,6.51
2022-11-28T21:29:24.644Z,6.49
2022-11-28T21:31:53.930Z,6.44
2022-11-28T21:34:22.630Z,6.36
2022-11-28T21:36:50.657Z,6.29
2022-11-28T21:39:20.754Z,6.29
2022-11-28T21:41:50.796Z,6.29
2022-11-28T21:44:18.914Z,6.30
2022-11-28T21:46:46.791Z,6.30
2022-11-28T21:49:14.600Z,6.27
2022-11-28T21:51:42.292Z,6.29
2022-11-28T21:54:11.876Z,6.21
2022-11-28T21:56:39.656Z,6.18
2022-11-28T21:59:07.982Z,6.19
2022-11-28T22:01:36.121Z,6.19
2022-11-28T22:04:05.603Z,6.19
2022-11-28T22:06:33.787Z,6.20
2022-11-28T22:09:09.227Z,6.19
2022-11-28T22:11:39.744Z,6.16
2022-11-28T22:14:07.574Z,6.12
2022-11-28T22:16:35.944Z,6.07
2022-11-28T22:19:04.907Z,6.03
2022-11-28T22:24:21.347Z,6.02
2022-11-28T22:26:49.676Z,6.03
2022-11-28T22:29:18.834Z,6.04
2022-11-28T22:31:46.864Z,6.03
2022-11-28T22:34:14.656Z,6.06
2022-11-28T22:36:42.324Z,6.09
2022-11-28T22:39:11.423Z,6.13
2022-11-28T22:41:39.202Z,6.18
2022-11-28T22:44:07.002Z,6.19
2022-11-28T22:46:34.714Z,6.25
2022-11-28T22:49:03.686Z,6.27
2022-11-28T22:51:31.940Z,6.30
2022-11-28T22:54:02.386Z,6.31
2022-11-28T22:56:33.138Z,6.30
2022-11-28T22:59:01.438Z,6.33
2022-11-28T23:01:32.095Z,6.36
2022-11-28T23:04:00.793Z,6.38
2022-11-28T23:06:33.017Z,6.42
2022-11-28T23:09:06.050Z,6.47
2022-11-28T23:11:37.872Z,6.60
2022-11-28T23:14:06.338Z,6.59
2022-11-28T23:16:37.113Z,6.58
2022-11-28T23:19:12.732Z,6.57
2022-11-28T23:21:43.712Z,6.60
2022-11-28T23:24:16.723Z,6.60
2022-11-28T23:26:46.493Z,6.61
2022-11-28T23:29:15.955Z,6.65
2022-11-28T23:31:46.969Z,6.62
2022-11-28T23:34:15.864Z,6.64
2022-11-28T23:36:46.851Z,6.61
2022-11-28T23:39:22.668Z,6.59
2022-11-28T23:41:50.691Z,6.58
2022-11-28T23:44:19.819Z,6.61
2022-11-28T23:46:48.981Z,6.63
2022-11-28T23:49:17.020Z,6.60
2022-11-28T23:51:44.756Z,6.63
2022-11-28T23:54:12.914Z,6.71
2022-11-28T23:56:42.034Z,6.78
2022-11-28T23:59:11.952Z,6.76
